NCAR-RAP Real-Time Weather Data

Output produced by METARs form (23 February 2020  02:37 UTC)
found at http://weather.rap.ucar.edu/surface/
 
KGRR 230153Z 20008KT 10SM BKN230 04/M03 A3008 RMK AO2 SLP194 T00391033
KGRR 230053Z 20009KT 10SM BKN240 04/M03 A3010 RMK AO2 SLP200 T00441033
KGRR 222353Z 22010KT 10SM SCT250 04/M03 A3009 RMK AO2 SLP199 T00441033 10061 20033 56010